Time;durP1;ratioP1;P1;durP2;ratioP2;P2;SDS_P1;SDS_P2;PMS_P1;PMS_P2;Temp;Humidity;BMP_temperature;BMP_pressure;BME280_temperature;BME280_humidity;BME280_pressure;Samples;Min_cycle;Max_cycle;Signal;HPM_P1;HPM_P2
2023/06/12 00:00:51;;;;;;;;;12.50;9.00;;;;;14.05;99.33;99458.03;6284302;20;2773208;-48
2023/06/12 00:03:23;;;;;;;;;9.00;7.50;;;;;14.16;99.13;99459.84;6286220;20;2741139;-48
2023/06/12 00:06:00;;;;;;;;;8.86;7.43;;;;;14.27;99.25;99460.72;6326997;20;3458611;-47
2023/06/12 00:08:35;;;;;;;;;9.00;7.00;;;;;14.17;98.47;99454.34;6314830;20;2743000;-48
2023/06/12 00:11:12;;;;;;;;;8.00;8.00;;;;;14.13;98.38;99463.66;6283685;20;2739843;-48
2023/06/12 00:13:42;;;;;;;;;7.50;7.50;;;;;13.77;99.92;99452.13;6292018;20;2734686;-47
2023/06/12 00:16:10;;;;;;;;;9.00;9.00;;;;;13.84;100.00;99455.19;6284557;20;2752526;-48
2023/06/12 00:18:40;;;;;;;;;8.50;7.00;;;;;14.17;99.35;99457.06;6281875;20;2733608;-49
2023/06/12 00:21:10;;;;;;;;;11.00;9.00;;;;;13.84;100.00;99455.19;6284416;20;2778500;-48
2023/06/12 00:23:41;;;;;;;;;11.20;10.00;;;;;13.56;100.00;99448.38;6308259;20;2780923;-51
2023/06/12 00:26:11;;;;;;;;;9.50;9.50;;;;;13.68;100.00;99451.97;6287059;20;2768085;-49
2023/06/12 00:28:39;;;;;;;;;8.50;8.50;;;;;13.59;100.00;99450.88;6282888;20;2750384;-51
2023/06/12 00:31:08;;;;;;;;;10.40;10.00;;;;;13.51;100.00;99447.91;6307684;20;2789892;-48
2023/06/12 00:33:36;;;;;;;;;8.00;8.00;;;;;13.80;100.00;99443.78;6283272;20;2752374;-50
2023/06/12 00:36:04;;;;;;;;;7.33;7.33;;;;;13.95;100.00;99447.09;6307856;20;1906459;-50
2023/06/12 00:38:34;;;;;;;;;13.00;10.00;;;;;13.95;100.00;99435.44;6281455;20;2791943;-50
2023/06/12 00:41:02;;;;;;;;;8.00;7.50;;;;;13.96;99.64;99438.03;6313956;20;2762909;-48
2023/06/12 00:43:29;;;;;;;;;8.50;8.50;;;;;13.81;99.82;99434.69;6283221;20;2748360;-50
2023/06/12 00:45:57;;;;;;;;;9.00;9.00;;;;;13.81;100.00;99433.84;6276860;20;2762782;-49
2023/06/12 00:48:24;;;;;;;;;7.00;7.00;;;;;13.84;99.69;99437.16;6287205;20;2730469;-49
2023/06/12 00:50:52;;;;;;;;;8.00;8.00;;;;;13.48;100.00;99429.25;6282580;20;2737760;-48
2023/06/12 00:53:20;;;;;;;;;9.50;8.00;;;;;13.63;100.00;99436.13;6277746;20;2749412;-50
2023/06/12 00:55:49;;;;;;;;;8.80;7.60;;;;;13.63;100.00;99429.88;6304115;20;2741982;-48
2023/06/12 00:58:18;;;;;;;;;10.60;10.60;;;;;13.31;100.00;99425.16;6332937;20;2789895;-48
2023/06/12 01:00:48;;;;;;;;;9.20;7.00;;;;;13.47;100.00;99424.84;6306224;20;2748226;-48
2023/06/12 01:03:21;;;;;;;;;7.86;6.00;;;;;13.32;100.00;99419.66;6356862;20;3438936;-49
2023/06/12 01:05:49;;;;;;;;;10.50;10.00;;;;;13.11;100.00;99430.22;6307319;20;2783719;-49
2023/06/12 01:08:31;;;;;;;;;8.80;8.00;;;;;12.99;100.00;99428.47;6307099;20;2753395;-50
2023/06/12 01:11:18;;;;;;;;;9.00;9.00;;;;;13.13;100.00;99430.94;6282767;20;2731555;-50
2023/06/12 01:13:45;;;;;;;;;10.00;10.00;;;;;13.11;100.00;99432.03;6275762;20;2772155;-53
2023/06/12 01:16:12;;;;;;;;;12.00;10.00;;;;;13.08;100.00;99430.44;6285238;20;2789839;-53
2023/06/12 01:18:41;;;;;;;;;12.80;10.80;;;;;13.20;100.00;99434.03;6304608;20;2790925;-49
2023/06/12 01:21:17;;;;;;;;;9.29;9.29;;;;;13.13;100.00;99430.94;6325506;20;3495591;-47
2023/06/12 01:24:22;;;;;;;;;9.00;9.00;;;;;13.08;100.00;99425.03;6350221;20;1798298;-48
2023/06/12 01:27:15;;;;;;;;;8.43;8.43;;;;;12.90;100.00;99421.06;6346184;20;1795799;-48
2023/06/12 01:30:38;;;;;;;;;8.50;8.00;;;;;12.87;100.00;99422.13;6305690;20;2748181;-51
2023/06/12 01:33:12;;;;;;;;;10.00;9.00;;;;;12.82;100.00;99424.34;6279964;20;2763849;-51
2023/06/12 01:35:43;;;;;;;;;5.00;4.00;;;;;12.86;100.00;99420.44;6280970;20;2742108;-54
2023/06/12 01:38:21;;;;;;;;;11.40;9.60;;;;;13.21;100.00;99424.97;6297935;20;2790337;-52
2023/06/12 01:40:49;;;;;;;;;10.00;8.00;;;;;13.06;100.00;99427.03;6283587;20;2751312;-49
2023/06/12 01:43:17;;;;;;;;;11.00;10.00;;;;;13.14;100.00;99423.75;6281363;20;2788954;-54
2023/06/12 01:45:46;;;;;;;;;11.00;6.80;;;;;13.08;100.00;99424.19;6301512;20;2761748;-47
2023/06/12 01:48:14;;;;;;;;;10.00;8.50;;;;;12.82;100.00;99424.34;6275235;20;2753513;-52
2023/06/12 01:50:41;;;;;;;;;7.50;6.50;;;;;12.94;100.00;99423.41;6281830;20;2738947;-51
2023/06/12 01:53:10;;;;;;;;;9.40;9.40;;;;;12.85;100.00;99426.81;6304057;20;2761792;-49
2023/06/12 01:55:41;;;;;;;;;9.60;9.40;;;;;12.74;100.00;99424.03;6300352;20;2753451;-47
2023/06/12 01:58:12;;;;;;;;;8.57;8.57;;;;;12.76;100.00;99424.78;6320953;20;2735835;-48
2023/06/12 02:00:42;;;;;;;;;10.00;8.40;;;;;12.86;100.00;99431.22;6333500;20;2775838;-49
2023/06/12 02:03:10;;;;;;;;;10.00;9.00;;;;;12.84;100.00;99422.38;6277495;20;2767014;-51
2023/06/12 02:05:39;;;;;;;;;10.40;9.40;;;;;12.90;100.00;99424.63;6305236;20;2784677;-55
2023/06/12 02:08:06;;;;;;;;;9.00;8.00;;;;;12.87;100.00;99427.53;6284339;20;2739049;-50
2023/06/12 02:10:35;;;;;;;;;11.00;11.00;;;;;12.93;100.00;99423.53;6302738;20;2786750;-50
2023/06/12 02:13:03;;;;;;;;;8.00;8.00;;;;;12.92;100.00;99428.03;6283364;20;2742175;-50
2023/06/12 02:15:30;;;;;;;;;7.50;7.50;;;;;12.89;100.00;99430.97;6271814;20;2746214;-48
2023/06/12 02:17:58;;;;;;;;;7.00;7.00;;;;;12.85;100.00;99426.81;6286720;20;2746115;-48
2023/06/12 02:20:25;;;;;;;;;10.00;9.00;;;;;12.89;100.00;99430.13;6277810;20;2754452;-52
2023/06/12 02:22:52;;;;;;;;;7.00;7.00;;;;;12.90;100.00;99426.44;6281270;20;2741981;-48
2023/06/12 02:25:20;;;;;;;;;14.00;9.00;;;;;12.87;100.00;99422.13;6279275;20;2773264;-53
2023/06/12 02:27:49;;;;;;;;;11.80;9.00;;;;;12.90;100.00;99432.72;6306492;20;2773201;-50
2023/06/12 02:30:16;;;;;;;;;9.00;7.00;;;;;12.63;100.00;99423.97;6286006;20;2751324;-50
2023/06/12 02:32:49;;;;;;;;;7.43;7.43;;;;;12.74;100.00;99433.00;6322705;20;3459662;-48
2023/06/12 02:35:18;;;;;;;;;11.80;9.00;;;;;12.60;100.00;99429.59;6334115;20;2775247;-50
2023/06/12 02:37:47;;;;;;;;;11.80;9.00;;;;;12.79;100.00;99435.34;6303681;20;2768010;-51
2023/06/12 02:40:17;;;;;;;;;7.00;7.00;;;;;12.90;100.00;99432.72;6280312;20;2732550;-50
2023/06/12 02:42:45;;;;;;;;;9.50;8.00;;;;;12.61;100.00;99425.94;6282146;20;2753444;-51
2023/06/12 02:45:12;;;;;;;;;11.00;9.00;;;;;12.69;100.00;99431.59;6273159;20;2774294;-51
2023/06/12 02:47:39;;;;;;;;;12.00;9.00;;;;;12.69;100.00;99434.28;6280381;20;2759168;-51
2023/06/12 02:50:09;;;;;;;;;9.20;8.60;;;;;12.66;100.00;99423.75;6304570;20;2746228;-48
2023/06/12 02:52:40;;;;;;;;;10.00;9.00;;;;;12.67;100.00;99425.50;6309314;20;2767062;-48
2023/06/12 02:55:07;;;;;;;;;9.00;8.00;;;;;12.84;100.00;99427.75;6277977;20;2731575;-50
2023/06/12 02:57:36;;;;;;;;;11.00;8.80;;;;;12.79;100.00;99429.09;6306970;20;2779544;-49
2023/06/12 03:00:05;;;;;;;;;7.00;7.00;;;;;12.76;100.00;99429.31;6286402;20;2744059;-52
2023/06/12 03:02:36;;;;;;;;;8.86;7.71;;;;;12.93;100.00;99426.22;6326866;20;3450149;-53
2023/06/12 03:05:04;;;;;;;;;10.00;8.00;;;;;12.83;100.00;99425.19;6315214;20;2765816;-49
2023/06/12 03:07:36;;;;;;;;;11.00;8.40;;;;;12.82;100.00;99434.25;6305143;20;2764926;-48
2023/06/12 03:10:08;;;;;;;;;12.00;10.00;;;;;12.84;100.00;99435.00;6305666;20;2790006;-48
2023/06/12 03:12:35;;;;;;;;;7.50;7.50;;;;;12.99;100.00;99435.69;6285180;20;2734652;-50
2023/06/12 03:15:03;;;;;;;;;7.00;7.00;;;;;12.81;100.00;99430.69;6285910;20;2730518;-52
2023/06/12 03:17:30;;;;;;;;;11.00;10.00;;;;;12.73;100.00;99435.78;6280322;20;2787854;-50
2023/06/12 03:20:05;;;;;;;;;11.00;10.33;;;;;13.03;100.00;99439.84;6326389;20;1808685;-52
2023/06/12 03:22:33;;;;;;;;;13.00;8.50;;;;;12.79;100.00;99440.72;6312555;20;2773163;-49
2023/06/12 03:25:01;;;;;;;;;8.67;8.67;;;;;12.87;100.00;99442.84;6280634;20;2752475;-49
2023/06/12 03:27:29;;;;;;;;;8.50;8.50;;;;;13.15;100.00;99445.19;6317325;20;2748218;-52
2023/06/12 03:29:57;;;;;;;;;10.00;9.00;;;;;13.13;100.00;99443.56;6284687;20;2773295;-49
2023/06/12 03:32:26;;;;;;;;;9.50;9.50;;;;;13.13;100.00;99451.66;6283002;20;2768066;-49
2023/06/12 03:34:55;;;;;;;;;8.40;8.20;;;;;13.28;99.71;99442.44;6306333;20;2735784;-52
2023/06/12 03:37:27;;;;;;;;;8.00;8.00;;;;;13.37;99.05;99439.00;6340226;20;2756744;-51
2023/06/12 03:39:55;;;;;;;;;8.00;8.00;;;;;13.39;98.71;99439.75;6285849;20;2746149;-49
2023/06/12 03:42:24;;;;;;;;;9.00;9.00;;;;;13.45;98.94;99438.44;6310573;20;2754501;-53
2023/06/12 03:44:52;;;;;;;;;8.00;7.00;;;;;13.35;98.78;99438.31;6313335;20;2748483;-51
2023/06/12 03:47:20;;;;;;;;;10.00;8.50;;;;;13.45;98.71;99432.19;6283988;20;2770207;-54
2023/06/12 03:49:49;;;;;;;;;9.00;8.00;;;;;13.48;98.14;99431.94;6311841;20;2748192;-50
2023/06/12 03:52:18;;;;;;;;;8.00;8.00;;;;;13.52;98.59;99438.81;6314460;20;2754595;-49
2023/06/12 03:54:47;;;;;;;;;8.60;7.80;;;;;13.63;97.80;99441.53;6306190;20;2734655;-52
2023/06/12 03:57:14;;;;;;;;;8.00;8.00;;;;;13.76;97.37;99441.44;6312829;20;2733619;-50
2023/06/12 03:59:44;;;;;;;;;11.00;8.00;;;;;13.76;97.00;99442.28;6306293;20;2773193;-50
2023/06/12 04:02:13;;;;;;;;;10.20;7.80;;;;;13.88;96.57;99440.47;6307192;20;2769194;-50
2023/06/12 04:04:40;;;;;;;;;7.50;7.50;;;;;13.95;96.21;99447.09;6283768;20;2746113;-50
2023/06/12 04:07:13;;;;;;;;;9.00;9.00;;;;;14.16;95.20;99449.06;6308213;20;2748232;-53
2023/06/12 04:09:40;;;;;;;;;5.00;5.00;;;;;14.23;94.53;99448.44;6314177;20;2748232;-51
2023/06/12 04:12:09;;;;;;;;;8.00;8.00;;;;;14.51;93.54;99451.63;6287844;20;2728394;-50
2023/06/12 04:14:36;;;;;;;;;8.50;8.50;;;;;14.49;93.25;99454.44;6281430;20;2752469;-54
2023/06/12 04:17:07;;;;;;;;;10.00;8.00;;;;;14.57;93.40;99448.44;6281082;20;2759678;-51
2023/06/12 04:19:36;;;;;;;;;13.00;10.00;;;;;14.76;92.21;99457.75;6281474;20;2797184;-49
2023/06/12 04:22:05;;;;;;;;;10.00;8.67;;;;;14.93;92.36;99447.25;6309006;20;2770084;-51
2023/06/12 04:24:36;;;;;;;;;7.00;7.00;;;;;16.23;86.02;99455.97;6315793;20;2735792;-49
2023/06/12 04:27:09;;;;;;;;;8.14;7.00;;;;;15.33;86.51;99452.00;6324742;20;3459630;-52
2023/06/12 04:29:38;;;;;;;;;8.40;8.00;;;;;15.11;88.60;99452.97;6338101;20;2741916;-54
2023/06/12 04:32:08;;;;;;;;;7.80;7.80;;;;;15.33;89.06;99453.84;6338534;20;2750280;-49
2023/06/12 04:34:43;;;;;;;;;7.00;7.00;;;;;15.40;88.45;99446.91;6315132;20;2746164;-49
2023/06/12 04:37:13;;;;;;;;;10.20;7.40;;;;;15.42;87.95;99453.03;6307128;20;2749291;-50
2023/06/12 04:39:48;;;;;;;;;7.29;7.29;;;;;15.55;87.76;99456.41;6355923;20;3442035;-50
2023/06/12 04:42:16;;;;;;;;;8.00;7.00;;;;;15.69;86.91;99451.69;6312063;20;2744043;-52
2023/06/12 04:44:48;;;;;;;;;8.20;8.20;;;;;16.24;83.95;99455.84;6307167;20;2756658;-52
2023/06/12 04:47:16;;;;;;;;;9.00;9.00;;;;;16.11;83.20;99463.31;6282612;20;2752371;-51
2023/06/12 04:49:45;;;;;;;;;8.00;8.00;;;;;16.01;84.25;99463.28;6285685;20;2739907;-54
2023/06/12 04:52:18;;;;;;;;;8.57;8.00;;;;;16.30;81.56;99465.28;6325100;20;3455501;-50
2023/06/12 04:54:48;;;;;;;;;7.00;7.00;;;;;16.16;83.28;99462.91;6337071;20;2740294;-52
2023/06/12 04:57:16;;;;;;;;;6.00;4.00;;;;;16.28;81.07;99469.97;6315400;20;2745071;-51
2023/06/12 04:59:45;;;;;;;;;5.50;5.50;;;;;16.17;80.28;99461.94;6281912;20;2741991;-53
2023/06/12 05:02:14;;;;;;;;;7.80;5.80;;;;;16.51;79.90;99469.75;6303615;20;2738905;-52
2023/06/12 05:04:43;;;;;;;;;7.00;5.00;;;;;16.99;76.04;99471.78;6309036;20;2745170;-53
2023/06/12 05:07:19;;;;;;;;;11.00;9.00;;;;;16.67;78.69;99470.09;6306764;20;2768035;-48
2023/06/12 05:09:47;;;;;;;;;8.50;8.50;;;;;16.70;78.60;99475.25;6281199;20;2749296;-50
2023/06/12 05:12:14;;;;;;;;;8.00;7.00;;;;;16.87;77.97;99471.88;6286313;20;2753538;-51
2023/06/12 05:14:43;;;;;;;;;6.50;6.50;;;;;17.00;76.72;99465.34;6281444;20;2737873;-49
2023/06/12 05:17:10;;;;;;;;;6.00;6.00;;;;;17.28;75.33;99474.50;6284468;20;2742067;-52
2023/06/12 05:19:40;;;;;;;;;8.50;6.00;;;;;17.28;75.01;99469.06;6283910;20;2746211;-52
2023/06/12 05:22:12;;;;;;;;;6.80;6.20;;;;;17.47;74.78;99473.63;6310047;20;2738871;-54
2023/06/12 05:24:41;;;;;;;;;6.60;6.20;;;;;17.32;74.77;99460.53;6337356;20;2731665;-50
2023/06/12 05:27:11;;;;;;;;;8.00;6.00;;;;;17.64;73.66;99470.22;6336372;20;2746216;-53
2023/06/12 05:29:38;;;;;;;;;7.50;7.00;;;;;17.51;72.69;99465.06;6316732;20;2730456;-52
2023/06/12 05:32:08;;;;;;;;;5.80;5.80;;;;;17.67;72.52;99464.47;6310374;20;2744121;-54
2023/06/12 05:34:37;;;;;;;;;6.80;6.80;;;;;17.94;71.47;99471.03;6333102;20;2748212;-49
2023/06/12 05:37:06;;;;;;;;;7.40;6.20;;;;;18.13;71.07;99470.97;6338805;20;2737781;-55
2023/06/12 05:39:35;;;;;;;;;6.60;5.60;;;;;18.12;71.36;99471.97;6332237;20;2737258;-49
2023/06/12 05:42:03;;;;;;;;;7.00;6.00;;;;;18.20;69.91;99477.53;6315065;20;2726466;-52
2023/06/12 05:44:31;;;;;;;;;7.00;5.50;;;;;17.92;68.33;99473.88;6283388;20;2723192;-52
2023/06/12 05:46:58;;;;;;;;;6.50;5.00;;;;;18.26;69.63;99475.22;6286567;20;2740909;-49
2023/06/12 05:49:25;;;;;;;;;7.50;6.00;;;;;18.09;69.25;99477.72;6283994;20;2741967;-51
2023/06/12 05:51:52;;;;;;;;;5.00;5.00;;;;;18.44;69.72;99473.44;6285837;20;2739978;-51
2023/06/12 05:54:22;;;;;;;;;5.00;5.00;;;;;18.67;67.63;99481.16;6305055;20;2745231;-51
2023/06/12 05:56:51;;;;;;;;;6.60;5.80;;;;;18.70;67.69;99478.16;6338233;20;2729535;-52
2023/06/12 05:59:23;;;;;;;;;5.86;5.86;;;;;18.51;67.00;99495.41;6351025;20;3455517;-52
2023/06/12 06:01:52;;;;;;;;;6.60;5.20;;;;;18.47;67.03;99478.56;6338673;20;2727410;-50
2023/06/12 06:04:21;;;;;;;;;7.00;7.00;;;;;18.12;66.89;99480.13;6337632;20;2746128;-55
2023/06/12 06:06:52;;;;;;;;;5.80;5.20;;;;;18.79;66.71;99485.44;6336247;20;2740011;-49
2023/06/12 06:09:21;;;;;;;;;5.20;5.20;;;;;18.66;66.04;99488.47;6306227;20;2742583;-53
2023/06/12 06:11:50;;;;;;;;;7.80;6.60;;;;;18.72;65.65;99487.91;6337095;20;2743104;-49
2023/06/12 06:14:18;;;;;;;;;6.00;6.00;;;;;19.06;65.71;99488.16;6315643;20;2740931;-48
2023/06/12 06:16:46;;;;;;;;;6.50;6.50;;;;;18.88;64.05;99498.16;6285753;20;2737812;-53
2023/06/12 06:19:21;;;;;;;;;6.00;6.00;;;;;18.89;64.56;99499.00;6287970;20;2733639;-52
2023/06/12 06:21:50;;;;;;;;;6.00;6.00;;;;;18.86;63.99;99489.28;6313984;20;2728437;-51
2023/06/12 06:24:18;;;;;;;;;5.33;4.67;;;;;19.20;63.18;99494.06;6314012;20;2750359;-54
2023/06/12 06:26:47;;;;;;;;;3.60;3.60;;;;;19.34;61.61;99493.50;6339007;20;2739881;-54
2023/06/12 06:29:17;;;;;;;;;4.00;4.00;;;;;19.91;60.85;99495.91;6340412;20;2746251;-49
2023/06/12 06:31:46;;;;;;;;;5.00;5.00;;;;;20.27;58.33;99502.09;6336546;20;2747194;-53
2023/06/12 06:34:15;;;;;;;;;4.60;4.60;;;;;20.37;58.83;99501.97;6336902;20;2743465;-50
2023/06/12 06:36:44;;;;;;;;;2.80;2.80;;;;;20.35;58.37;99502.16;6339529;20;2744111;-49
2023/06/12 06:39:13;;;;;;;;;4.20;2.40;;;;;20.11;57.73;99496.53;6305523;20;2751401;-52
2023/06/12 06:41:41;;;;;;;;;6.33;5.67;;;;;19.89;56.95;99504.22;6316398;20;2733738;-51
2023/06/12 06:44:10;;;;;;;;;4.20;4.20;;;;;20.28;57.47;99502.97;6337364;20;2739988;-49
2023/06/12 06:46:40;;;;;;;;;4.80;4.80;;;;;20.76;55.11;99502.38;6338684;20;2743078;-55
2023/06/12 06:49:09;;;;;;;;;4.20;4.20;;;;;21.00;54.93;99507.06;6336604;20;2747837;-49
2023/06/12 06:51:37;;;;;;;;;3.67;3.67;;;;;20.69;53.99;99501.31;6281724;20;2744060;-50
2023/06/12 06:54:06;;;;;;;;;4.00;3.60;;;;;20.83;53.96;99503.44;6331042;20;2747211;-51
2023/06/12 06:56:34;;;;;;;;;3.00;2.00;;;;;21.22;51.57;99500.13;6313746;20;2750397;-51
2023/06/12 06:59:03;;;;;;;;;4.00;4.00;;;;;21.35;50.04;99507.81;6335352;20;2754480;-49
2023/06/12 07:01:33;;;;;;;;;3.00;3.00;;;;;21.62;49.31;99524.97;6304828;20;2735759;-49
2023/06/12 07:04:02;;;;;;;;;5.00;4.00;;;;;21.79;47.89;99517.63;6335968;20;2756677;-54
2023/06/12 07:06:33;;;;;;;;;5.00;3.60;;;;;21.84;48.63;99517.97;6301268;20;2751408;-53
2023/06/12 07:09:02;;;;;;;;;3.00;3.00;;;;;22.62;46.34;99519.22;6302286;20;2737813;-58
2023/06/12 07:11:31;;;;;;;;;4.40;4.00;;;;;21.44;46.65;99519.66;6336026;20;2748353;-58
2023/06/12 07:14:01;;;;;;;;;4.00;4.00;;;;;22.19;46.86;99515.91;6303015;20;2756759;-59
2023/06/12 07:16:31;;;;;;;;;3.00;3.00;;;;;22.10;46.01;99513.16;6302811;20;2745127;-58
2023/06/12 07:19:00;;;;;;;;;1.00;1.00;;;;;21.55;46.34;99513.00;6335342;20;2731664;-57
2023/06/12 07:21:29;;;;;;;;;4.20;2.80;;;;;21.35;44.84;99506.97;6333494;20;2754675;-58
2023/06/12 07:23:59;;;;;;;;;5.60;3.60;;;;;21.55;46.55;99523.94;6302562;20;2750345;-58
2023/06/12 07:26:28;;;;;;;;;4.00;3.00;;;;;21.94;46.24;99520.53;6336556;20;2737802;-58
2023/06/12 07:28:57;;;;;;;;;2.00;2.00;;;;;21.58;44.90;99523.59;6307426;20;2746332;-58
2023/06/12 07:31:27;;;;;;;;;3.00;3.00;;;;;21.78;45.53;99524.13;6309013;20;2737774;-58
2023/06/12 07:33:56;;;;;;;;;3.67;3.00;;;;;21.21;45.89;99522.13;6312529;20;2746128;-59
2023/06/12 07:36:25;;;;;;;;;4.80;3.80;;;;;;;;6334348;20;2756605;-58
2023/06/12 07:38:53;;;;;;;;;2.67;2.67;;;;;22.05;45.29;99510.09;6280659;20;2739910;-58
2023/06/12 07:41:23;;;;;;;;;4.60;2.00;;;;;22.21;46.08;99514.72;6331872;20;2756685;-59
2023/06/12 07:43:52;;;;;;;;;4.20;3.00;;;;;22.00;44.91;99517.97;6303771;20;2739876;-58
2023/06/12 07:46:20;;;;;;;;;3.00;3.00;;;;;21.73;45.75;99512.88;6315414;20;2743102;-58
2023/06/12 07:48:48;;;;;;;;;3.67;3.67;;;;;22.68;44.72;99515.81;6317953;20;2756642;-59
2023/06/12 07:51:17;;;;;;;;;2.40;2.40;;;;;23.05;43.72;99511.56;6339914;20;2746134;-47
2023/06/12 07:53:46;;;;;;;;;5.60;4.40;;;;;22.72;44.81;99518.00;6298399;20;2752487;-47
2023/06/12 07:56:16;;;;;;;;;4.00;2.80;;;;;21.94;44.03;99515.06;6308422;20;2756593;-53
2023/06/12 07:58:46;;;;;;;;;2.20;2.20;;;;;22.21;43.80;99509.25;6306323;20;2744074;-47
2023/06/12 08:01:16;;;;;;;;;3.60;2.60;;;;;22.41;44.13;99509.72;6309603;20;2738978;-51
2023/06/12 08:03:45;;;;;;;;;5.20;2.60;;;;;22.73;44.34;99511.50;6339547;20;2735757;-50
2023/06/12 08:06:15;;;;;;;;;5.80;3.40;;;;;22.50;43.22;99522.34;6341037;20;2738083;-49
2023/06/12 08:08:47;;;;;;;;;4.40;3.00;;;;;22.56;42.99;99512.56;6338694;20;2754708;-53
2023/06/12 08:11:17;;;;;;;;;6.60;4.00;;;;;22.09;43.25;99506.00;6313133;20;2755361;-51
2023/06/12 08:13:46;;;;;;;;;2.80;2.60;;;;;22.14;44.44;99520.00;6307806;20;2748209;-48
2023/06/12 08:16:16;;;;;;;;;2.80;2.80;;;;;22.65;43.52;99516.16;6336636;20;2755554;-52
2023/06/12 08:18:45;;;;;;;;;3.00;3.00;;;;;22.42;44.53;99522.38;6308956;20;2757031;-51
2023/06/12 08:21:14;;;;;;;;;3.00;3.00;;;;;22.58;43.58;99516.84;6309732;20;2740970;-49
2023/06/12 08:23:44;;;;;;;;;4.60;4.60;;;;;22.69;42.74;99518.34;6310734;20;2738870;-52
2023/06/12 08:26:13;;;;;;;;;3.40;3.40;;;;;22.11;42.09;99514.00;6307695;20;2741963;-49
2023/06/12 08:28:42;;;;;;;;;3.00;3.00;;;;;22.67;42.43;99522.28;6311222;20;2756563;-50
2023/06/12 08:31:12;;;;;;;;;3.00;3.00;;;;;23.07;42.44;99520.47;6308779;20;2743051;-52
2023/06/12 08:33:42;;;;;;;;;4.00;4.00;;;;;23.13;43.53;99525.22;6308073;20;2754479;-52
2023/06/12 08:36:12;;;;;;;;;2.00;2.00;;;;;23.01;42.23;99519.25;6309248;20;2754574;-51
2023/06/12 08:38:40;;;;;;;;;2.67;2.67;;;;;22.87;40.73;99523.59;6284793;20;2744482;-52
2023/06/12 08:41:09;;;;;;;;;3.60;2.60;;;;;22.72;42.21;99518.00;6339987;20;2733623;-53
2023/06/12 08:43:39;;;;;;;;;3.40;3.20;;;;;23.57;42.12;99517.22;6342459;20;2746150;-50
2023/06/12 08:46:08;;;;;;;;;2.40;2.40;;;;;23.52;41.90;99510.59;6305335;20;2736749;-49
2023/06/12 08:48:37;;;;;;;;;5.40;3.20;;;;;23.17;40.71;99516.47;6340955;20;2754514;-55
2023/06/12 08:51:07;;;;;;;;;2.60;1.80;;;;;23.02;38.84;99514.66;6307634;20;2752401;-47
2023/06/12 08:53:37;;;;;;;;;5.00;3.00;;;;;22.74;39.98;99520.56;6306768;20;2738839;-50
2023/06/12 08:56:08;;;;;;;;;3.00;3.00;;;;;22.94;40.98;99510.03;6335247;20;2756547;-52
2023/06/12 08:58:37;;;;;;;;;4.00;3.60;;;;;23.28;40.58;99511.63;6308075;20;2751446;-48
2023/06/12 09:01:08;;;;;;;;;3.00;3.00;;;;;23.40;40.61;99519.22;6320108;20;2733641;-48
2023/06/12 09:03:37;;;;;;;;;2.80;2.80;;;;;23.33;38.02;99515.50;6339702;20;2734683;-47
2023/06/12 09:06:09;;;;;;;;;2.25;2.25;;;;;23.52;39.55;99513.31;6343452;20;2748215;-48
2023/06/12 09:08:38;;;;;;;;;3.33;3.33;;;;;23.53;38.33;99512.28;6282474;20;2750306;-48
2023/06/12 09:11:08;;;;;;;;;4.60;3.40;;;;;23.65;38.15;99510.84;6336034;20;2746116;-51
2023/06/12 09:13:42;;;;;;;;;3.00;3.00;;;;;23.56;38.54;99515.50;6305530;20;2725431;-52
2023/06/12 09:16:12;;;;;;;;;3.00;3.00;;;;;23.71;37.76;99509.25;6336216;20;2733732;-53
2023/06/12 09:18:53;;;;;;;;;2.80;2.80;;;;;23.95;38.36;99505.47;6307484;20;2748244;-50
2023/06/12 09:21:24;;;;;;;;;5.20;2.00;;;;;23.84;38.69;99513.09;6308336;20;2732721;-48
2023/06/12 09:23:55;;;;;;;;;2.00;2.00;;;;;23.58;37.55;99509.84;6336998;20;2750373;-50
2023/06/12 09:26:24;;;;;;;;;2.00;2.00;;;;;23.39;38.41;99509.28;6305369;20;2746372;-52
2023/06/12 09:28:53;;;;;;;;;4.00;3.00;;;;;23.62;38.11;99513.94;6284856;20;2752396;-50
2023/06/12 09:31:22;;;;;;;;;3.80;3.00;;;;;23.65;37.04;99519.06;6340964;20;2736753;-48
2023/06/12 09:33:54;;;;;;;;;2.80;2.80;;;;;23.90;37.37;99521.63;6341443;20;2732663;-47
2023/06/12 09:36:28;;;;;;;;;3.00;3.00;;;;;23.71;39.02;99512.81;6336210;20;2742071;-52
2023/06/12 09:38:56;;;;;;;;;2.00;2.00;;;;;24.42;37.61;99516.13;6314685;20;2744203;-52
2023/06/12 09:41:25;;;;;;;;;4.00;4.00;;;;;24.45;37.47;99523.19;6331913;20;2750755;-48
2023/06/12 09:44:02;;;;;;;;;2.60;2.60;;;;;24.35;37.27;99514.31;6306870;20;2744077;-47
2023/06/12 09:46:32;;;;;;;;;1.60;1.00;;;;;23.57;35.54;99506.25;6340253;20;2737808;-52
2023/06/12 09:49:01;;;;;;;;;2.80;2.80;;;;;23.64;37.51;99515.47;6335430;20;2735718;-50
2023/06/12 09:51:32;;;;;;;;;3.00;3.00;;;;;23.74;36.16;99523.44;6336002;20;2736762;-51
2023/06/12 09:54:03;;;;;;;;;3.80;2.40;;;;;23.58;34.93;99523.56;6329691;20;2741969;-49
2023/06/12 09:56:34;;;;;;;;;1.60;1.60;;;;;23.08;36.49;99517.53;6334258;20;2752519;-48
2023/06/12 09:59:07;;;;;;;;;2.20;2.20;;;;;23.20;36.31;99516.09;6304253;20;2750725;-54
2023/06/12 10:01:39;;;;;;;;;3.00;3.00;;;;;23.97;35.74;99523.44;6305380;20;2737827;-50
2023/06/12 10:04:12;;;;;;;;;2.00;2.00;;;;;24.06;36.81;99521.47;6338986;20;2752471;-50
2023/06/12 10:06:42;;;;;;;;;1.80;1.80;;;;;23.74;34.08;99520.72;6303553;20;2750440;-49
2023/06/12 10:09:12;;;;;;;;;3.20;2.00;;;;;23.53;35.70;99506.81;6306329;20;2754667;-51
2023/06/12 10:11:43;;;;;;;;;1.80;1.80;;;;;23.76;35.03;99515.91;6304736;20;2748318;-50
2023/06/12 10:14:13;;;;;;;;;3.60;2.40;;;;;24.07;35.18;99512.22;6304453;20;2732593;-47
2023/06/12 10:16:45;;;;;;;;;3.60;2.60;;;;;24.01;36.21;99518.44;6338317;20;2745085;-46
2023/06/12 10:19:15;;;;;;;;;2.20;1.00;;;;;23.74;34.92;99507.00;6335303;20;2750770;-49
2023/06/12 10:21:44;;;;;;;;;4.00;2.67;;;;;24.04;36.33;99507.06;6284909;20;2750400;-47
2023/06/12 10:24:14;;;;;;;;;3.00;3.00;;;;;23.44;33.66;99517.81;6340306;20;2719643;-52
2023/06/12 10:26:43;;;;;;;;;1.00;1.00;;;;;23.79;34.43;99512.78;6340263;20;2735701;-48
2023/06/12 10:29:34;;;;;;;;;2.00;2.00;;;;;23.70;34.83;99511.13;6339371;20;2731942;-49
2023/06/12 10:32:07;;;;;;;;;3.60;2.40;;;;;23.88;33.70;99513.56;6339198;20;2735712;-49
2023/06/12 10:34:42;;;;;;;;;5.00;2.20;;;;;24.05;34.74;99508.81;6338553;20;2737828;-47
2023/06/12 10:37:42;;;;;;;;;3.25;2.50;;;;;24.31;35.70;99506.47;6343765;20;2751360;-49
2023/06/12 10:40:21;;;;;;;;;4.25;2.50;;;;;24.14;34.98;99512.31;6307948;20;2624270;-51
2023/06/12 10:43:12;;;;;;;;;0.40;0.40;;;;;23.95;33.92;99509.06;6337257;20;2726336;-49
2023/06/12 10:45:57;;;;;;;;;3.00;3.00;;;;;24.89;34.51;99505.84;6335208;20;2734788;-50
2023/06/12 10:48:27;;;;;;;;;4.00;2.40;;;;;24.08;35.10;99498.31;6304930;20;2744202;-48
2023/06/12 10:50:58;;;;;;;;;3.00;2.20;;;;;24.12;34.46;99497.91;6340418;20;2752507;-50
2023/06/12 10:53:29;;;;;;;;;1.80;1.80;;;;;24.13;34.75;99491.41;6305517;20;2753445;-50
2023/06/12 10:56:06;;;;;;;;;3.40;3.40;;;;;24.51;34.30;99493.09;6305622;20;2742076;-47
2023/06/12 10:58:39;;;;;;;;;3.60;3.00;;;;;23.93;33.64;99491.06;6307557;20;2748229;-48
2023/06/12 11:01:11;;;;;;;;;2.00;2.00;;;;;24.41;34.73;99489.75;6307833;20;2750348;-47
2023/06/12 11:03:42;;;;;;;;;2.80;2.80;;;;;24.51;33.19;99492.22;6303172;20;2739894;-50
2023/06/12 11:06:13;;;;;;;;;2.00;2.00;;;;;24.07;34.20;99482.88;6339477;20;2752488;-46
2023/06/12 11:08:46;;;;;;;;;5.20;3.00;;;;;23.71;34.48;99476.34;6300239;20;2739894;-50
2023/06/12 11:11:17;;;;;;;;;2.40;2.40;;;;;24.37;34.06;99479.31;6334290;20;2756566;-50
2023/06/12 11:13:46;;;;;;;;;4.40;3.80;;;;;24.63;33.81;99479.72;6299958;20;2748288;-53
2023/06/12 11:16:17;;;;;;;;;2.00;2.00;;;;;24.51;34.53;99481.22;6300005;20;2750539;-51
2023/06/12 11:18:46;;;;;;;;;3.80;2.60;;;;;24.60;33.70;99480.13;6307957;20;2752466;-50
2023/06/12 11:21:14;;;;;;;;;3.67;1.67;;;;;24.36;33.54;99473.00;6287751;20;2753389;-51
2023/06/12 11:23:43;;;;;;;;;3.00;3.00;;;;;24.56;35.48;99477.94;6340803;20;2756643;-53
2023/06/12 11:26:17;;;;;;;;;3.00;3.00;;;;;24.07;35.65;99471.91;6309866;20;2737886;-52
2023/06/12 11:28:49;;;;;;;;;2.00;2.00;;;;;23.87;34.58;99471.59;6342805;20;2744057;-53